Terminal Aerodrome Forecast
Issued by NWS Albany, NY

Home | Current Version | Previous Version | Text Only | Print | Product List | Glossary On
Versions: 1 2 3 4 5 6 7 8 9 10 11 12 13 14 15 16 17 18 19 20 21
000
FTUS41 KALY 211357 AAA
TAFGFL
TAF AMD
KGFL 211357Z 2114/2212 22008KT 1/4SM FG OVC002
     FM212300 29010KT P6SM VCSH BKN025 OVC050
     FM220300 31006KT 6SM BR BKN025=

USA.gov is the U.S. government's official web portal to all federal, state and local government web resources and services.